createdAt,value
2019-03-13T00:00:46.189Z,3.34
2019-03-13T00:03:19.125Z,3.34
2019-03-13T00:05:50.272Z,3.26
2019-03-13T00:08:21.672Z,3.11
2019-03-13T00:10:52.938Z,3.04
2019-03-13T00:13:24.244Z,2.98
2019-03-13T00:15:55.530Z,3.04
2019-03-13T00:18:26.863Z,2.97
2019-03-13T00:20:58.116Z,2.98
2019-03-13T00:23:29.419Z,3.00
2019-03-13T00:26:02.379Z,2.95
2019-03-13T00:28:33.711Z,2.89
2019-03-13T00:31:04.965Z,2.91
2019-03-13T00:33:36.302Z,2.91
2019-03-13T00:36:07.511Z,2.97
2019-03-13T00:38:39.046Z,2.91
2019-03-13T00:41:10.548Z,2.96
2019-03-13T00:43:41.814Z,3.01
2019-03-13T00:46:13.068Z,3.01
2019-03-13T00:48:44.297Z,2.92
2019-03-13T00:51:15.584Z,2.87
2019-03-13T00:53:48.805Z,2.82
2019-03-13T00:56:19.926Z,2.76
2019-03-13T00:58:51.294Z,2.71
2019-03-13T01:01:24.002Z,2.62
2019-03-13T01:04:00.752Z,2.66
2019-03-13T01:06:36.323Z,2.67
2019-03-13T01:09:07.543Z,2.58
2019-03-13T01:11:38.844Z,2.54
2019-03-13T01:14:10.017Z,2.46
2019-03-13T01:16:41.415Z,2.39
2019-03-13T01:19:12.569Z,2.46
2019-03-13T01:21:43.741Z,2.43
2019-03-13T01:24:15.197Z,2.36
2019-03-13T01:26:46.484Z,2.40
2019-03-13T01:29:17.728Z,2.44
2019-03-13T01:31:50.540Z,2.46
2019-03-13T01:34:35.228Z,2.46
2019-03-13T01:37:06.382Z,2.39
2019-03-13T01:39:37.646Z,2.40
2019-03-13T01:42:08.759Z,2.41
2019-03-13T01:44:40.853Z,2.30
2019-03-13T01:47:13.268Z,2.34
2019-03-13T01:49:44.596Z,2.30
2019-03-13T01:52:15.625Z,2.28
2019-03-13T01:54:46.963Z,2.36
2019-03-13T01:57:18.111Z,2.33
2019-03-13T01:59:49.283Z,2.30
2019-03-13T02:02:20.609Z,2.18
2019-03-13T02:04:51.935Z,2.18
2019-03-13T02:07:23.122Z,2.16
2019-03-13T02:09:54.262Z,2.00
2019-03-13T02:12:25.542Z,2.08
2019-03-13T02:14:56.883Z,2.01
2019-03-13T02:17:28.130Z,1.99
2019-03-13T02:19:59.317Z,1.99
2019-03-13T02:22:30.682Z,1.93
2019-03-13T02:25:01.988Z,1.97
2019-03-13T02:27:33.224Z,2.02
2019-03-13T02:30:11.723Z,1.98
2019-03-13T02:32:42.973Z,1.87
2019-03-13T02:35:14.279Z,1.90
2019-03-13T02:37:45.569Z,1.91
2019-03-13T02:40:16.918Z,1.82
2019-03-13T02:42:48.149Z,1.79
2019-03-13T02:45:19.328Z,1.79
2019-03-13T02:47:50.502Z,1.72
2019-03-13T02:50:21.741Z,1.76
2019-03-13T02:52:53.064Z,1.68
2019-03-13T02:55:24.180Z,1.71
2019-03-13T02:57:55.479Z,1.63
2019-03-13T03:00:44.336Z,1.57
2019-03-13T03:03:29.570Z,1.60
2019-03-13T03:06:01.709Z,1.56
2019-03-13T03:08:33.061Z,1.59
2019-03-13T03:11:04.481Z,1.65
2019-03-13T03:13:35.615Z,1.59
2019-03-13T03:16:07.923Z,1.68
2019-03-13T03:18:38.968Z,1.66
2019-03-13T03:21:10.208Z,1.71
2019-03-13T03:23:44.981Z,1.68
2019-03-13T03:26:14.283Z,1.59
2019-03-13T03:28:45.417Z,1.46
2019-03-13T03:31:16.647Z,1.30
2019-03-13T03:33:58.767Z,1.42
2019-03-13T03:36:30.404Z,1.34
2019-03-13T03:39:01.641Z,1.32
2019-03-13T03:41:34.813Z,1.21
2019-03-13T03:44:06.087Z,1.21
2019-03-13T03:46:37.195Z,1.25
2019-03-13T03:49:08.571Z,1.30
2019-03-13T03:51:39.875Z,1.30
2019-03-13T03:54:11.149Z,1.29
2019-03-13T03:56:42.434Z,1.25
2019-03-13T03:59:13.664Z,1.33
2019-03-13T04:01:44.974Z,1.27
2019-03-13T04:04:16.292Z,1.19
2019-03-13T04:06:47.530Z,1.28
2019-03-13T04:09:18.921Z,1.34
2019-03-13T04:11:50.242Z,1.34
2019-03-13T04:14:21.756Z,1.36
2019-03-13T04:16:53.007Z,1.33
2019-03-13T04:19:24.294Z,1.32
2019-03-13T04:21:55.451Z,1.30
2019-03-13T04:24:26.643Z,1.29
2019-03-13T04:26:57.882Z,1.29
2019-03-13T04:29:29.062Z,1.30
2019-03-13T04:32:00.996Z,1.32
2019-03-13T04:34:32.175Z,1.31
2019-03-13T04:37:03.559Z,1.47
2019-03-13T04:39:36.192Z,1.40
2019-03-13T04:42:08.196Z,1.38
2019-03-13T04:44:39.368Z,1.38
2019-03-13T04:47:10.597Z,1.25
2019-03-13T04:49:41.673Z,1.41
2019-03-13T04:52:13.095Z,1.50
2019-03-13T04:54:44.221Z,1.54
2019-03-13T04:57:16.528Z,1.51
2019-03-13T04:59:47.637Z,1.49
2019-03-13T05:02:19.289Z,1.55
2019-03-13T05:04:50.654Z,1.34
2019-03-13T05:07:21.906Z,1.52
2019-03-13T05:09:53.024Z,1.57
2019-03-13T05:12:27.551Z,1.63
2019-03-13T05:14:58.818Z,1.65
2019-03-13T05:17:30.067Z,1.66
2019-03-13T05:20:01.266Z,1.59
2019-03-13T05:22:32.598Z,1.56
2019-03-13T05:25:04.903Z,1.45
2019-03-13T05:27:36.265Z,1.56
2019-03-13T05:30:09.552Z,1.55
2019-03-13T05:32:40.726Z,1.62
2019-03-13T05:35:13.120Z,1.53
2019-03-13T05:37:44.316Z,1.60
2019-03-13T05:40:17.163Z,1.62
2019-03-13T05:42:48.998Z,1.72
2019-03-13T05:45:20.544Z,1.72
2019-03-13T05:47:52.805Z,1.67
2019-03-13T05:50:23.957Z,1.65
2019-03-13T05:53:03.198Z,1.74
2019-03-13T05:55:35.145Z,1.67
2019-03-13T05:58:06.372Z,1.72
2019-03-13T06:00:37.916Z,1.71
2019-03-13T06:03:09.457Z,1.70
2019-03-13T06:05:40.627Z,1.62
2019-03-13T06:08:11.936Z,1.75
2019-03-13T06:10:43.132Z,1.86
2019-03-13T06:13:14.491Z,1.72
2019-03-13T06:15:45.665Z,1.75
2019-03-13T06:18:17.026Z,1.74
2019-03-13T06:20:48.315Z,1.68
2019-03-13T06:23:19.593Z,1.70
2019-03-13T06:25:50.914Z,1.58
2019-03-13T06:28:22.423Z,1.47
2019-03-13T06:30:53.556Z,1.61
2019-03-13T06:33:24.859Z,1.74
2019-03-13T06:35:56.053Z,1.81
2019-03-13T06:38:27.190Z,1.71
2019-03-13T06:41:05.229Z,1.60
2019-03-13T06:43:38.526Z,1.65
2019-03-13T06:46:09.833Z,1.74
2019-03-13T06:48:41.200Z,1.85
2019-03-13T06:51:13.503Z,1.82
2019-03-13T06:53:45.899Z,1.84
2019-03-13T06:56:17.225Z,1.79
2019-03-13T06:58:57.617Z,1.86
2019-03-13T07:01:45.618Z,1.87
2019-03-13T07:04:21.581Z,1.82
2019-03-13T07:06:54.450Z,1.88
2019-03-13T07:09:39.390Z,1.97
2019-03-13T07:12:20.347Z,1.73
2019-03-13T07:14:56.384Z,1.80
2019-03-13T07:17:29.781Z,1.73
2019-03-13T07:20:15.254Z,1.59
2019-03-13T07:22:57.733Z,1.62
2019-03-13T07:25:47.786Z,1.80
2019-03-13T07:28:31.242Z,1.89
2019-03-13T07:31:16.966Z,2.14
2019-03-13T07:33:56.185Z,2.24
2019-03-13T07:36:50.061Z,2.50
2019-03-13T07:39:26.248Z,2.73
2019-03-13T07:42:02.257Z,2.62
2019-03-13T07:44:35.376Z,2.80
2019-03-13T07:47:24.906Z,2.72
2019-03-13T07:50:03.629Z,2.76
2019-03-13T07:52:54.592Z,2.57
2019-03-13T07:55:31.747Z,2.50
2019-03-13T07:58:07.450Z,2.41
2019-03-13T08:00:57.803Z,2.38
2019-03-13T08:03:32.372Z,2.47
2019-03-13T08:06:20.838Z,2.57
2019-03-13T08:09:02.066Z,2.61
2019-03-13T08:11:45.143Z,2.70
2019-03-13T08:14:34.507Z,2.71
2019-03-13T08:17:07.191Z,2.66
2019-03-13T08:19:56.589Z,2.78
2019-03-13T08:22:46.224Z,2.85
2019-03-13T08:25:31.275Z,3.03
2019-03-13T08:28:04.224Z,3.01
2019-03-13T08:30:55.846Z,3.22
2019-03-13T08:33:36.247Z,3.23
2019-03-13T08:36:11.707Z,3.03
2019-03-13T08:38:44.573Z,3.03
2019-03-13T08:41:33.799Z,3.15
2019-03-13T08:44:22.143Z,3.32
2019-03-13T08:46:58.150Z,3.41
2019-03-13T08:49:43.013Z,3.46
2019-03-13T08:52:21.729Z,3.68
2019-03-13T08:55:09.644Z,3.96
2019-03-13T08:57:54.410Z,3.94
2019-03-13T09:00:39.351Z,4.12
2019-03-13T09:03:12.058Z,4.05
2019-03-13T09:06:01.622Z,4.08
2019-03-13T09:08:43.987Z,4.20
2019-03-13T09:11:36.279Z,4.38
2019-03-13T09:14:12.361Z,4.10
2019-03-13T09:16:54.752Z,3.96
2019-03-13T09:19:36.439Z,3.87
2019-03-13T09:22:25.480Z,4.02
2019-03-13T09:25:11.094Z,4.21
2019-03-13T09:27:35.529Z,4.26
2019-03-13T09:30:15.454Z,4.69
2019-03-13T09:33:04.639Z,4.79
2019-03-13T09:35:49.530Z,4.92
2019-03-13T09:38:25.030Z,4.68
2019-03-13T09:41:03.708Z,4.41
2019-03-13T09:43:42.482Z,4.64
2019-03-13T09:46:21.340Z,5.01
2019-03-13T09:48:59.803Z,5.31
2019-03-13T09:51:38.869Z,5.79
2019-03-13T09:54:32.083Z,5.87
2019-03-13T09:57:14.238Z,5.92
2019-03-13T10:00:07.761Z,5.52
2019-03-13T10:02:58.610Z,5.61
2019-03-13T10:05:31.447Z,4.97
2019-03-13T10:08:21.146Z,5.12
2019-03-13T10:11:09.014Z,5.14
2019-03-13T10:13:45.081Z,5.13
2019-03-13T10:16:21.320Z,5.32
2019-03-13T10:19:14.492Z,5.42
2019-03-13T10:21:50.164Z,5.56
2019-03-13T10:24:35.033Z,5.53
2019-03-13T10:27:21.129Z,5.40
2019-03-13T10:30:10.486Z,5.65
2019-03-13T10:32:55.751Z,5.73
2019-03-13T10:35:31.308Z,5.65
2019-03-13T10:38:13.731Z,5.63
2019-03-13T10:40:57.526Z,5.62
2019-03-13T10:43:30.421Z,5.95
2019-03-13T10:46:05.991Z,6.05
2019-03-13T10:48:45.160Z,5.87
2019-03-13T10:51:30.445Z,5.59
2019-03-13T10:54:06.250Z,5.26
2019-03-13T10:56:39.129Z,5.29
2019-03-13T10:59:11.846Z,5.38
2019-03-13T11:01:54.465Z,5.55
2019-03-13T11:04:43.384Z,5.34
2019-03-13T11:07:16.199Z,5.09
2019-03-13T11:09:49.031Z,5.12
2019-03-13T11:12:36.995Z,5.18
2019-03-13T11:15:26.445Z,5.08
2019-03-13T11:18:17.949Z,4.94
2019-03-13T11:21:02.406Z,4.92
2019-03-13T11:23:47.107Z,4.87
2019-03-13T11:26:19.782Z,5.01
2019-03-13T11:28:56.290Z,5.08
2019-03-13T11:31:38.234Z,5.31
2019-03-13T11:34:14.060Z,5.22
2019-03-13T11:37:03.105Z,5.25
2019-03-13T11:39:38.848Z,5.13
2019-03-13T11:42:12.718Z,5.13
2019-03-13T11:44:45.703Z,5.27
2019-03-13T11:47:21.603Z,5.29
2019-03-13T11:50:06.286Z,5.29
2019-03-13T11:52:55.517Z,5.63
2019-03-13T11:55:46.510Z,5.84
2019-03-13T11:58:22.145Z,5.91
2019-03-13T12:01:07.355Z,5.88
2019-03-13T12:03:57.475Z,6.13
2019-03-13T12:06:30.416Z,5.85
2019-03-13T12:09:15.706Z,5.86
2019-03-13T12:11:51.672Z,5.86
2019-03-13T12:14:30.656Z,6.13
2019-03-13T12:17:18.728Z,5.91
2019-03-13T12:19:54.169Z,5.53
2019-03-13T12:22:26.897Z,5.58
2019-03-13T12:25:03.096Z,5.68
2019-03-13T12:27:54.570Z,5.68
2019-03-13T12:30:33.851Z,5.79
2019-03-13T12:33:06.796Z,5.96
2019-03-13T12:35:39.696Z,5.84
2019-03-13T12:38:18.585Z,5.59
2019-03-13T12:40:57.623Z,5.46
2019-03-13T12:43:38.126Z,5.42
2019-03-13T12:46:13.736Z,5.54
2019-03-13T12:48:46.564Z,5.60
2019-03-13T12:51:31.487Z,5.89
2019-03-13T12:54:07.533Z,5.93
2019-03-13T12:56:41.272Z,5.74
2019-03-13T12:59:22.002Z,5.65
2019-03-13T13:01:54.966Z,5.49
2019-03-13T13:04:35.683Z,5.53
2019-03-13T13:07:11.810Z,5.63
2019-03-13T13:10:00.043Z,5.56
2019-03-13T13:12:41.879Z,5.46
2019-03-13T13:15:23.820Z,5.62
2019-03-13T13:18:05.465Z,5.88
2019-03-13T13:20:36.635Z,5.66
2019-03-13T13:23:07.973Z,5.67
2019-03-13T13:25:39.159Z,5.83
2019-03-13T13:28:10.398Z,6.06
2019-03-13T13:30:41.548Z,6.14
2019-03-13T13:33:13.645Z,6.10
2019-03-13T13:35:45.037Z,5.88
2019-03-13T13:38:16.297Z,5.90
2019-03-13T13:40:47.546Z,5.79
2019-03-13T13:43:18.895Z,5.70
2019-03-13T13:45:56.560Z,5.89
2019-03-13T13:48:27.632Z,5.78
2019-03-13T13:50:58.746Z,5.71
2019-03-13T13:53:30.198Z,5.78
2019-03-13T13:56:01.415Z,5.87
2019-03-13T13:58:32.633Z,5.74
2019-03-13T14:01:03.675Z,5.65
2019-03-13T14:03:34.919Z,5.55
2019-03-13T14:06:06.447Z,5.72
2019-03-13T14:08:39.067Z,5.82
2019-03-13T14:11:10.270Z,5.69
2019-03-13T14:13:41.852Z,5.56
2019-03-13T14:16:12.986Z,5.43
2019-03-13T14:18:44.070Z,5.42
2019-03-13T14:21:15.677Z,5.43
2019-03-13T14:23:47.837Z,5.47
2019-03-13T14:26:19.037Z,5.36
2019-03-13T14:28:50.278Z,5.25
2019-03-13T14:31:21.381Z,5.14
2019-03-13T14:33:52.573Z,5.04
2019-03-13T14:36:23.752Z,5.01
2019-03-13T14:38:54.883Z,5.03
2019-03-13T14:41:26.757Z,5.05
2019-03-13T14:43:58.169Z,5.03
2019-03-13T14:46:29.658Z,5.00
2019-03-13T14:49:01.078Z,4.99
2019-03-13T14:51:32.173Z,4.94
2019-03-13T14:54:03.656Z,4.93
2019-03-13T14:56:35.179Z,4.98
2019-03-13T14:59:06.264Z,4.90
2019-03-13T15:01:38.667Z,4.92
2019-03-13T15:04:10.181Z,4.81
2019-03-13T15:06:42.554Z,4.82
2019-03-13T15:09:13.845Z,4.82
2019-03-13T15:11:45.090Z,4.77
2019-03-13T15:14:18.261Z,4.74
2019-03-13T15:16:49.463Z,4.65
2019-03-13T15:19:20.644Z,4.64
2019-03-13T15:21:51.845Z,4.63
2019-03-13T15:24:22.934Z,4.60
2019-03-13T15:26:54.303Z,4.43
2019-03-13T15:29:25.403Z,4.46
2019-03-13T15:31:56.573Z,4.46
2019-03-13T15:34:27.914Z,4.45
2019-03-13T15:36:59.245Z,4.47
2019-03-13T15:39:30.539Z,4.42
2019-03-13T15:42:01.897Z,4.42
2019-03-13T15:44:33.516Z,4.41
2019-03-13T15:47:05.037Z,4.29
2019-03-13T15:49:36.284Z,4.31
2019-03-13T15:52:07.702Z,4.34
2019-03-13T15:54:38.850Z,4.32
2019-03-13T15:57:09.888Z,4.36
2019-03-13T15:59:40.979Z,4.42
2019-03-13T16:02:13.530Z,4.34
2019-03-13T16:04:44.651Z,4.35
2019-03-13T16:07:15.801Z,4.23
2019-03-13T16:09:47.039Z,4.14
2019-03-13T16:12:18.335Z,4.21
2019-03-13T16:14:51.786Z,4.22
2019-03-13T16:17:23.087Z,4.24
2019-03-13T16:19:54.351Z,4.24
2019-03-13T16:22:25.899Z,4.16
2019-03-13T16:24:57.259Z,4.13
2019-03-13T16:27:28.523Z,4.17
2019-03-13T16:29:59.890Z,4.09
2019-03-13T16:32:43.301Z,4.05
2019-03-13T16:35:06.393Z,4.06
2019-03-13T16:37:37.749Z,4.10
2019-03-13T16:40:15.106Z,3.96
2019-03-13T16:42:46.277Z,3.90
2019-03-13T16:45:19.692Z,3.80
2019-03-13T16:47:51.093Z,3.78
2019-03-13T16:50:25.231Z,3.78
2019-03-13T16:52:56.520Z,3.82
2019-03-13T16:55:28.245Z,3.76
2019-03-13T16:57:59.659Z,3.81
2019-03-13T17:00:33.126Z,3.67
2019-03-13T17:03:05.601Z,3.65
2019-03-13T17:05:37.826Z,3.64
2019-03-13T17:08:09.349Z,3.71
2019-03-13T17:10:40.593Z,3.67
2019-03-13T17:13:11.798Z,3.56
2019-03-13T17:15:43.166Z,3.56
2019-03-13T17:18:14.387Z,3.53
2019-03-13T17:20:45.836Z,3.42
2019-03-13T17:23:17.980Z,3.32
2019-03-13T17:25:51.058Z,3.25
2019-03-13T17:28:22.388Z,3.22
2019-03-13T17:30:53.756Z,3.13
2019-03-13T17:33:25.075Z,3.13
2019-03-13T17:35:56.595Z,3.20
2019-03-13T17:38:28.005Z,3.16
2019-03-13T17:40:59.211Z,3.07
2019-03-13T17:43:39.309Z,3.02
2019-03-13T17:46:03.697Z,3.03
2019-03-13T17:48:36.837Z,3.08
2019-03-13T17:51:08.149Z,3.07
2019-03-13T17:53:39.522Z,3.09
2019-03-13T17:56:10.868Z,3.10
2019-03-13T17:58:42.124Z,3.06
2019-03-13T18:01:13.496Z,3.04
2019-03-13T18:03:45.019Z,3.04
2019-03-13T18:06:16.246Z,3.09
2019-03-13T18:08:47.566Z,3.01
2019-03-13T18:11:18.709Z,2.98
2019-03-13T18:13:49.864Z,2.95
2019-03-13T18:16:21.225Z,2.88
2019-03-13T18:18:52.660Z,2.86
2019-03-13T18:21:24.005Z,2.86
2019-03-13T18:23:55.422Z,2.84
2019-03-13T18:26:26.946Z,2.88
2019-03-13T18:28:58.307Z,2.84
2019-03-13T18:31:29.483Z,2.85
2019-03-13T18:34:02.779Z,2.86
2019-03-13T18:36:46.823Z,2.87
2019-03-13T18:39:18.242Z,2.86
2019-03-13T18:41:49.496Z,2.90
2019-03-13T18:44:21.489Z,2.89
2019-03-13T18:47:02.946Z,2.80
2019-03-13T18:49:40.933Z,2.83
2019-03-13T18:52:14.119Z,2.84
2019-03-13T18:54:52.949Z,2.82
2019-03-13T18:57:28.525Z,2.81
2019-03-13T19:00:01.963Z,2.80
2019-03-13T19:02:35.088Z,2.77
2019-03-13T19:05:10.170Z,2.74
2019-03-13T19:07:44.638Z,2.70
2019-03-13T19:10:21.031Z,2.73
2019-03-13T19:12:52.655Z,2.72
2019-03-13T19:15:28.660Z,2.73
2019-03-13T19:18:01.290Z,2.69
2019-03-13T19:20:33.285Z,2.76
2019-03-13T19:23:06.992Z,2.80
2019-03-13T19:25:39.819Z,2.80
2019-03-13T19:28:14.412Z,2.88
2019-03-13T19:30:47.329Z,2.90
2019-03-13T19:33:19.012Z,2.91
2019-03-13T19:35:50.607Z,2.77
2019-03-13T19:38:21.968Z,2.72
2019-03-13T19:40:54.535Z,2.86
2019-03-13T19:43:28.236Z,2.52
2019-03-13T19:45:59.987Z,2.37
2019-03-13T19:48:31.938Z,2.16
2019-03-13T19:51:03.844Z,2.26
2019-03-13T19:53:35.261Z,2.38
2019-03-13T19:56:07.908Z,2.44
2019-03-13T19:58:39.185Z,2.44
2019-03-13T20:01:10.959Z,2.47
2019-03-13T20:03:54.354Z,2.61
2019-03-13T20:06:15.432Z,2.52
2019-03-13T20:08:51.088Z,2.50
2019-03-13T20:11:23.101Z,2.50
2019-03-13T20:13:58.747Z,2.53
2019-03-13T20:16:32.089Z,2.56
2019-03-13T20:19:05.582Z,2.55
2019-03-13T20:21:37.175Z,2.60
2019-03-13T20:24:08.644Z,2.48
2019-03-13T20:26:40.264Z,2.54
2019-03-13T20:29:11.415Z,2.48
2019-03-13T20:31:42.740Z,2.44
2019-03-13T20:34:13.885Z,2.38
2019-03-13T20:36:45.677Z,2.38
2019-03-13T20:39:17.301Z,2.33
2019-03-13T20:41:48.788Z,2.30
2019-03-13T20:44:20.113Z,2.28
2019-03-13T20:46:51.622Z,2.22
2019-03-13T20:49:22.981Z,2.13
2019-03-13T20:51:54.320Z,2.09
2019-03-13T20:54:26.965Z,2.13
2019-03-13T20:56:59.646Z,2.11
2019-03-13T20:59:32.554Z,2.01
2019-03-13T21:02:11.612Z,1.95
2019-03-13T21:04:55.364Z,1.86
2019-03-13T21:07:27.886Z,1.90
2019-03-13T21:10:17.888Z,1.82
2019-03-13T21:12:59.309Z,1.69
2019-03-13T21:15:30.625Z,1.74
2019-03-13T21:18:02.013Z,1.80
2019-03-13T21:20:33.718Z,1.75
2019-03-13T21:23:07.473Z,1.79
2019-03-13T21:25:41.400Z,1.78
2019-03-13T21:28:13.211Z,1.75
2019-03-13T21:30:45.250Z,1.73
2019-03-13T21:33:18.234Z,1.69
2019-03-13T21:35:50.647Z,1.67
2019-03-13T21:38:29.805Z,1.62
2019-03-13T21:41:10.811Z,1.60
2019-03-13T21:43:45.869Z,1.63
2019-03-13T21:46:20.248Z,1.60
2019-03-13T21:48:51.531Z,1.60
2019-03-13T21:51:23.188Z,1.56
2019-03-13T21:53:54.558Z,1.58
2019-03-13T21:56:25.908Z,1.56
2019-03-13T21:58:57.500Z,1.51
2019-03-13T22:01:28.658Z,1.45
2019-03-13T22:03:59.987Z,1.46
2019-03-13T22:06:31.735Z,1.48
2019-03-13T22:09:04.763Z,1.43
2019-03-13T22:11:36.622Z,1.40
2019-03-13T22:14:08.053Z,1.41
2019-03-13T22:16:39.368Z,1.41
2019-03-13T22:19:10.965Z,1.44
2019-03-13T22:21:42.190Z,1.40
2019-03-13T22:24:13.511Z,1.39
2019-03-13T22:26:45.003Z,1.33
2019-03-13T22:29:16.419Z,1.32
2019-03-13T22:31:47.942Z,1.30
2019-03-13T22:34:19.196Z,1.29
2019-03-13T22:36:50.565Z,1.24
2019-03-13T22:39:21.772Z,1.25
2019-03-13T22:41:53.046Z,1.32
2019-03-13T22:44:24.487Z,1.31
2019-03-13T22:46:55.860Z,1.19
2019-03-13T22:49:27.101Z,1.23
2019-03-13T22:51:58.347Z,1.18
2019-03-13T22:54:29.691Z,1.12
2019-03-13T22:57:00.897Z,1.21
2019-03-13T22:59:33.359Z,1.20
2019-03-13T23:02:05.030Z,1.16
2019-03-13T23:04:36.485Z,1.18
2019-03-13T23:07:07.654Z,1.08
2019-03-13T23:09:38.944Z,1.11
2019-03-13T23:12:10.346Z,0.96
2019-03-13T23:14:41.709Z,0.82
2019-03-13T23:17:12.966Z,0.79
2019-03-13T23:19:44.199Z,0.87
2019-03-13T23:22:17.009Z,0.93
2019-03-13T23:24:48.130Z,0.91
2019-03-13T23:27:19.332Z,0.86
2019-03-13T23:29:50.766Z,0.84
2019-03-13T23:32:22.074Z,0.81
2019-03-13T23:34:53.310Z,0.84
2019-03-13T23:37:24.469Z,0.86
2019-03-13T23:39:57.728Z,0.86
2019-03-13T23:42:28.787Z,0.84
2019-03-13T23:45:00.049Z,0.79
2019-03-13T23:47:31.138Z,0.77
2019-03-13T23:50:02.374Z,0.83
2019-03-13T23:52:33.816Z,0.83
2019-03-13T23:55:05.751Z,0.82
2019-03-13T23:57:36.972Z,0.76
